Time;durP1;ratioP1;P1;durP2;ratioP2;P2;SDS_P1;SDS_P2;PMS_P1;PMS_P2;Temp;Humidity;BMP_temperature;BMP_pressure;BME280_temperature;BME280_humidity;BME280_pressure;Samples;Min_cycle;Max_cycle;Signal;HPM_P1;HPM_P2
2024/01/12 00:00:26;;;;;;;0.20;0.20;;;;;;;-3.59;84.88;96721.63;5063767;28;20115;-62
2024/01/12 00:02:53;;;;;;;0.20;0.20;;;;;;;-3.32;84.27;96784.88;5062223;28;20063;-64
2024/01/12 00:05:20;;;;;;;0.10;0.10;;;;;;;-3.46;84.37;96789.38;5040776;28;20049;-62
2024/01/12 00:07:47;;;;;;;0.20;0.20;;;;;;;-3.52;84.68;96793.25;5047522;28;20053;-63
2024/01/12 00:10:14;;;;;;;0.17;0.17;;;;;;;-3.49;84.29;96798.09;5047598;28;20053;-63
2024/01/12 00:12:40;;;;;;;0.20;0.20;;;;;;;-3.61;85.30;96796.88;5047544;28;20530;-64
2024/01/12 00:15:08;;;;;;;0.10;0.10;;;;;;;-3.49;85.71;96795.38;5047978;28;20586;-63
2024/01/12 00:17:35;;;;;;;0.20;0.20;;;;;;;-4.00;85.46;96725.84;5045927;28;20049;-63
2024/01/12 00:20:04;;;;;;;0.10;0.10;;;;;;;-3.74;86.04;96797.53;5047602;28;20114;-63
2024/01/12 00:22:31;;;;;;;0.10;0.10;;;;;;;-3.69;85.57;96792.88;5047206;28;20048;-63
2024/01/12 00:24:58;;;;;;;0.10;0.10;;;;;;;-3.59;85.79;96791.97;5045894;28;20060;-62
2024/01/12 00:27:25;;;;;;;0.10;0.10;;;;;;;-3.51;85.50;96788.66;5045263;28;20076;-62
2024/01/12 00:29:52;;;;;;;0.17;0.17;;;;;;;-3.53;85.94;96786.22;5047708;28;20123;-62
2024/01/12 00:32:19;;;;;;;0.17;0.17;;;;;;;-3.73;86.36;96759.38;5046417;28;20442;-62
2024/01/12 00:34:46;;;;;;;0.10;0.10;;;;;;;-3.52;86.52;96787.00;5047493;28;20059;-63
2024/01/12 00:37:13;;;;;;;0.20;0.20;;;;;;;-3.67;86.00;96755.53;5045557;28;20145;-63
2024/01/12 00:39:40;;;;;;;0.20;0.20;;;;;;;-3.42;86.23;96793.16;5047628;28;20059;-62
2024/01/12 00:42:07;;;;;;;0.20;0.20;;;;;;;-3.60;86.22;96736.22;5046414;28;20049;-62
2024/01/12 00:44:33;;;;;;;0.20;0.20;;;;;;;-3.47;85.83;96776.94;5045932;28;20068;-63
2024/01/12 00:47:00;;;;;;;0.20;0.20;;;;;;;-3.32;86.00;96778.69;5046714;28;20561;-64
2024/01/12 00:49:27;;;;;;;0.10;0.10;;;;;;;-3.82;85.48;96700.75;5046468;28;20471;-64
2024/01/12 00:51:54;;;;;;;0.10;0.10;;;;;;;-3.43;84.98;96758.25;5045470;28;20060;-64
2024/01/12 00:54:26;;;;;;;0.10;0.10;;;;;;;-3.24;85.50;96778.06;5045601;28;20554;-62
2024/01/12 00:56:53;;;;;;;0.20;0.20;;;;;;;-3.42;85.34;96776.09;5045100;28;20057;-63
2024/01/12 00:59:22;;;;;;;0.10;0.10;;;;;;;-3.53;85.63;96777.28;5045400;28;20481;-62
2024/01/12 01:01:49;;;;;;;0.20;0.20;;;;;;;-3.56;84.85;96748.09;5046574;28;20076;-62
2024/01/12 01:04:18;;;;;;;0.13;0.13;;;;;;;-3.65;85.27;96766.06;5045493;28;20045;-63
2024/01/12 01:06:45;;;;;;;0.20;0.20;;;;;;;-3.65;84.52;96776.91;5045187;28;20308;-62
2024/01/12 01:09:12;;;;;;;0.10;0.10;;;;;;;-3.81;84.32;96783.53;5046510;28;20135;-63
2024/01/12 01:11:38;;;;;;;0.15;0.15;;;;;;;-3.75;84.70;96779.69;5045421;28;20899;-63
2024/01/12 01:14:05;;;;;;;0.10;0.10;;;;;;;-3.76;85.69;96772.69;5046561;28;20061;-63
2024/01/12 01:16:32;;;;;;;0.10;0.10;;;;;;;-3.78;85.77;96762.13;5043055;28;20436;-63
2024/01/12 01:18:59;;;;;;;0.10;0.10;;;;;;;-3.66;86.32;96764.44;5046373;28;20059;-63
2024/01/12 01:21:26;;;;;;;0.20;0.20;;;;;;;-3.71;84.91;96748.25;5046163;28;20125;-63
2024/01/12 01:23:54;;;;;;;0.20;0.20;;;;;;;-3.65;85.10;96763.38;5046686;28;20049;-63
2024/01/12 01:26:21;;;;;;;0.10;0.10;;;;;;;-3.79;84.99;96743.47;5045991;28;20141;-63
2024/01/12 01:28:48;;;;;;;0.10;0.10;;;;;;;-3.66;85.25;96756.31;5046644;28;20420;-63
2024/01/12 01:31:14;;;;;;;0.10;0.10;;;;;;;-3.74;85.96;96751.53;5045902;28;20066;-63
2024/01/12 01:33:42;;;;;;;0.10;0.10;;;;;;;-4.19;85.41;96668.19;5045944;28;20431;-62
2024/01/12 01:36:09;;;;;;;0.20;0.20;;;;;;;-3.76;85.31;96723.97;5045892;28;20057;-64
2024/01/12 01:38:35;;;;;;;0.10;0.10;;;;;;;-3.58;85.40;96729.44;5046155;28;20048;-63
2024/01/12 01:41:02;;;;;;;0.20;0.20;;;;;;;-3.55;84.41;96728.06;5045894;28;20060;-63
2024/01/12 01:43:29;;;;;;;0.20;0.20;;;;;;;-3.70;85.35;96730.94;5044329;28;20349;-64
2024/01/12 01:45:56;;;;;;;0.10;0.10;;;;;;;-4.31;85.36;96633.44;5045671;28;20057;-63
2024/01/12 01:48:23;;;;;;;0.15;0.15;;;;;;;-3.66;85.14;96726.56;5045894;28;20063;-63
2024/01/12 01:50:49;;;;;;;0.20;0.20;;;;;;;-3.68;85.36;96734.16;5045491;28;20048;-63
2024/01/12 01:53:17;;;;;;;0.20;0.20;;;;;;;-4.11;84.92;96664.84;5044260;28;20470;-63
2024/01/12 01:55:44;;;;;;;0.10;0.10;;;;;;;-3.53;84.85;96731.28;5045321;28;20080;-62
2024/01/12 01:58:12;;;;;;;0.20;0.20;;;;;;;-3.58;84.50;96725.94;5045548;28;20049;-64
2024/01/12 02:00:40;;;;;;;0.10;0.10;;;;;;;-3.52;84.72;96728.28;5045355;28;20434;-63
2024/01/12 02:03:07;;;;;;;0.20;0.20;;;;;;;-3.48;83.93;96712.28;5044107;28;20055;-63
2024/01/12 02:05:35;;;;;;;0.15;0.15;;;;;;;-3.53;83.87;96706.94;5045108;28;20060;-63
2024/01/12 02:08:02;;;;;;;0.10;0.10;;;;;;;-3.89;84.16;96654.34;5045673;28;20057;-62
2024/01/12 02:10:29;;;;;;;0.20;0.20;;;;;;;-4.53;83.67;96538.53;5045568;28;20294;-63
2024/01/12 02:12:56;;;;;;;0.20;0.20;;;;;;;-3.60;84.07;96698.34;5044094;28;20071;-63
2024/01/12 02:15:23;;;;;;;0.10;0.10;;;;;;;-3.67;84.66;96697.91;5045321;28;20076;-63
2024/01/12 02:17:49;;;;;;;0.20;0.20;;;;;;;-3.48;84.33;96696.03;5045241;28;20057;-64
2024/01/12 02:20:16;;;;;;;0.20;0.20;;;;;;;-3.56;84.18;96704.81;5045333;28;20059;-63
2024/01/12 02:22:43;;;;;;;0.10;0.10;;;;;;;-3.69;83.97;96694.66;5045355;28;20075;-63
2024/01/12 02:25:10;;;;;;;0.10;0.10;;;;;;;-4.24;83.82;96600.66;5045138;28;20049;-63
2024/01/12 02:27:37;;;;;;;0.13;0.13;;;;;;;-3.70;83.82;96688.44;5044018;28;20056;-63
2024/01/12 02:30:05;;;;;;;0.20;0.20;;;;;;;-3.71;84.16;96665.19;5045058;28;20130;-63
2024/01/12 02:32:32;;;;;;;0.10;0.10;;;;;;;-4.32;85.63;96609.38;5043214;28;20319;-62
2024/01/12 02:34:58;;;;;;;0.10;0.10;;;;;;;-3.89;85.48;96681.38;5043486;28;20053;-63
2024/01/12 02:37:25;;;;;;;0.17;0.17;;;;;;;-3.56;84.73;96696.69;5042969;28;20067;-64
2024/01/12 02:39:52;;;;;;;0.10;0.10;;;;;;;-3.59;84.83;96699.97;5044991;28;20567;-63
2024/01/12 02:42:19;;;;;;;0.20;0.20;;;;;;;-3.96;85.19;96645.75;5044405;28;20488;-63
2024/01/12 02:44:45;;;;;;;0.17;0.17;;;;;;;-3.53;85.28;96698.81;5044843;28;20057;-63
2024/01/12 02:47:13;;;;;;;0.20;0.20;;;;;;;-3.41;85.11;96702.72;5044338;28;20132;-63
2024/01/12 02:49:40;;;;;;;0.10;0.10;;;;;;;-3.40;84.68;96706.22;5024998;28;20056;-63
2024/01/12 02:52:06;;;;;;;0.10;0.10;;;;;;;-3.37;84.60;96711.84;5039620;28;20932;-63
2024/01/12 02:54:33;;;;;;;0.17;0.17;;;;;;;-3.82;84.92;96662.88;5024915;28;20459;-63
2024/01/12 02:57:00;;;;;;;0.10;0.10;;;;;;;-3.34;83.26;96710.47;5024518;28;20508;-64
2024/01/12 02:59:27;;;;;;;0.20;0.20;;;;;;;-3.31;83.00;96705.28;5024621;28;21132;-63
2024/01/12 03:01:53;;;;;;;0.15;0.15;;;;;;;-3.34;83.21;96718.59;5023988;28;20524;-64
2024/01/12 03:04:20;;;;;;;0.10;0.10;;;;;;;-3.33;83.02;96718.31;5024391;28;20096;-63
2024/01/12 03:06:47;;;;;;;0.15;0.15;;;;;;;-3.29;83.24;96716.63;5039174;28;20049;-63
2024/01/12 03:09:14;;;;;;;0.15;0.15;;;;;;;-3.84;82.22;96649.66;5039834;28;20062;-63
2024/01/12 03:11:41;;;;;;;0.20;0.20;;;;;;;-3.38;82.65;96723.78;5039506;28;20451;-63
2024/01/12 03:14:08;;;;;;;0.10;0.10;;;;;;;-3.46;81.83;96726.31;5024434;28;20175;-63
2024/01/12 03:16:35;;;;;;;0.10;0.10;;;;;;;-3.40;81.89;96725.19;5024764;28;20053;-63
2024/01/12 03:19:01;;;;;;;0.20;0.20;;;;;;;-3.51;83.06;96723.69;5043444;28;20152;-63
2024/01/12 03:21:29;;;;;;;0.20;0.20;;;;;;;-3.54;83.48;96716.16;5044054;28;20080;-62
2024/01/12 03:23:55;;;;;;;0.15;0.15;;;;;;;-3.37;82.80;96730.00;5044325;28;20128;-62
2024/01/12 03:26:22;;;;;;;0.20;0.20;;;;;;;-4.57;82.95;96582.63;5043917;28;20053;-62
2024/01/12 03:28:49;;;;;;;0.10;0.10;;;;;;;-3.81;83.63;96707.81;5044255;28;20052;-64
2024/01/12 03:31:18;;;;;;;0.10;0.10;;;;;;;-3.97;83.70;96682.00;5044269;28;20538;-62
2024/01/12 03:33:45;;;;;;;0.10;0.10;;;;;;;-3.74;83.43;96713.66;5044110;28;20053;-63
2024/01/12 03:36:13;;;;;;;0.10;0.10;;;;;;;-3.78;83.52;96712.63;5044078;28;20137;-64
2024/01/12 03:38:40;;;;;;;0.10;0.10;;;;;;;-4.08;84.68;96675.09;5044076;28;20053;-63
2024/01/12 03:41:07;;;;;;;0.10;0.10;;;;;;;-4.17;86.63;96695.75;5047763;28;20099;-62
2024/01/12 03:43:34;;;;;;;0.20;0.20;;;;;;;-4.09;87.83;96684.28;5046805;28;20423;-63
2024/01/12 03:46:00;;;;;;;0.10;0.10;;;;;;;-4.29;88.07;96662.88;5048078;28;20599;-62
2024/01/12 03:48:27;;;;;;;0.10;0.10;;;;;;;-4.11;87.29;96629.72;5046591;28;20045;-63
2024/01/12 03:50:54;;;;;;;0.10;0.10;;;;;;;-3.60;86.22;96695.63;5048308;28;20045;-62
2024/01/12 03:53:21;;;;;;;0.10;0.10;;;;;;;-4.31;85.11;96559.63;5048263;28;20545;-62
2024/01/12 03:55:48;;;;;;;0.20;0.20;;;;;;;-3.99;86.84;96700.41;5048025;28;20051;-64
2024/01/12 03:58:15;;;;;;;0.10;0.10;;;;;;;-4.80;88.44;96668.72;5048011;28;20053;-62
2024/01/12 04:00:42;;;;;;;0.10;0.10;;;;;;;-5.05;90.62;96720.22;5040667;28;20053;-63
2024/01/12 04:03:09;;;;;;;0.10;0.10;;;;;;;-4.67;90.78;96700.50;5028153;28;20520;-63
2024/01/12 04:05:35;;;;;;;0.10;0.10;;;;;;;-4.47;90.28;96696.03;5027542;28;20060;-63
2024/01/12 04:08:03;;;;;;;0.20;0.20;;;;;;;-4.90;89.15;96620.19;5027815;28;20057;-63
2024/01/12 04:10:30;;;;;;;0.20;0.20;;;;;;;-4.22;87.82;96712.78;5027761;28;20152;-62
2024/01/12 04:12:57;;;;;;;0.20;0.20;;;;;;;-4.25;87.68;96718.78;5042967;28;20077;-62
2024/01/12 04:15:24;;;;;;;0.10;0.10;;;;;;;-4.25;88.82;96707.19;5042666;28;20127;-61
2024/01/12 04:17:50;;;;;;;0.10;0.10;;;;;;;-4.33;88.96;96713.19;5046008;28;20053;-62
2024/01/12 04:20:17;;;;;;;0.15;0.15;;;;;;;-4.21;89.34;96702.81;5045858;28;20057;-62
2024/01/12 04:22:44;;;;;;;0.10;0.10;;;;;;;-5.15;89.57;96630.38;5045708;28;20500;-63
2024/01/12 04:25:11;;;;;;;0.20;0.20;;;;;;;-5.47;90.21;96538.34;5045884;28;20059;-62
2024/01/12 04:27:38;;;;;;;0.10;0.10;;;;;;;-4.87;89.43;96614.22;5047057;28;20582;-63
2024/01/12 04:30:05;;;;;;;0.20;0.20;;;;;;;-4.06;88.98;96727.78;5046118;28;20571;-62
2024/01/12 04:32:32;;;;;;;0.15;0.15;;;;;;;-3.91;87.72;96729.53;5047061;28;20049;-63
2024/01/12 04:34:59;;;;;;;0.10;0.10;;;;;;;-4.52;86.91;96642.03;5046130;28;20049;-62
2024/01/12 04:37:26;;;;;;;0.10;0.10;;;;;;;-3.94;86.62;96730.94;5045458;28;20435;-64
2024/01/12 04:39:53;;;;;;;0.10;0.10;;;;;;;-3.95;86.04;96731.22;5047071;28;20063;-62
2024/01/12 04:42:20;;;;;;;0.20;0.20;;;;;;;-4.04;85.61;96697.75;5047153;28;20049;-62
2024/01/12 04:44:46;;;;;;;0.10;0.10;;;;;;;-3.83;86.11;96737.03;5045892;28;20060;-63
2024/01/12 04:47:13;;;;;;;0.10;0.10;;;;;;;-3.90;85.67;96731.13;5047066;28;20076;-61
2024/01/12 04:49:40;;;;;;;0.20;0.20;;;;;;;-4.67;85.68;96605.97;5047088;28;20534;-62
2024/01/12 04:52:07;;;;;;;0.20;0.20;;;;;;;-3.88;85.77;96742.50;5045654;28;20053;-62
2024/01/12 04:54:33;;;;;;;0.10;0.10;;;;;;;-3.82;85.98;96744.03;5046731;28;20565;-62
2024/01/12 04:57:00;;;;;;;0.10;0.10;;;;;;;-3.85;86.65;96737.31;5046674;28;20056;-62
2024/01/12 04:59:27;;;;;;;0.10;0.10;;;;;;;-3.70;87.50;96736.34;5046314;28;20067;-63
2024/01/12 05:01:54;;;;;;;0.20;0.20;;;;;;;-3.48;86.37;96742.84;5045231;28;20049;-62
2024/01/12 05:04:21;;;;;;;0.13;0.13;;;;;;;-3.40;86.21;96742.19;5046861;28;20127;-61
2024/01/12 05:06:48;;;;;;;0.10;0.10;;;;;;;-3.63;86.35;96758.44;5044891;28;20144;-62
2024/01/12 05:09:15;;;;;;;0.20;0.20;;;;;;;-3.20;85.68;96752.00;5045366;28;20141;-62
2024/01/12 05:11:42;;;;;;;0.10;0.10;;;;;;;-3.20;85.26;96762.81;5044983;28;20060;-64
2024/01/12 05:14:09;;;;;;;0.20;0.20;;;;;;;-2.96;85.03;96758.19;5046285;28;20136;-63
2024/01/12 05:16:35;;;;;;;0.20;0.20;;;;;;;-2.96;84.36;96763.59;5046520;28;20052;-63
2024/01/12 05:19:02;;;;;;;0.17;0.17;;;;;;;-2.88;84.25;96771.06;5044911;28;20068;-62
2024/01/12 05:21:29;;;;;;;0.20;0.20;;;;;;;-2.87;83.89;96759.13;5046033;28;20539;-63
2024/01/12 05:23:56;;;;;;;0.10;0.10;;;;;;;-2.84;84.08;96760.44;5046592;28;20063;-65
2024/01/12 05:26:23;;;;;;;0.20;0.20;;;;;;;-2.74;83.45;96766.53;5045609;28;20486;-63
2024/01/12 05:28:50;;;;;;;0.20;0.20;;;;;;;-2.90;83.35;96773.28;5046666;28;20617;-62
2024/01/12 05:31:16;;;;;;;0.10;0.10;;;;;;;-3.04;83.80;96777.78;5044884;28;20049;-63
2024/01/12 05:33:43;;;;;;;0.20;0.20;;;;;;;-2.84;83.37;96768.56;5046377;28;20148;-63
2024/01/12 05:36:10;;;;;;;0.20;0.20;;;;;;;-2.73;83.73;96765.44;5046315;28;20045;-63
2024/01/12 05:38:37;;;;;;;0.13;0.13;;;;;;;-2.69;83.34;96768.38;5046146;28;20053;-62
2024/01/12 05:41:04;;;;;;;0.20;0.20;;;;;;;-2.64;83.29;96760.97;5045872;28;20045;-62
2024/01/12 05:43:31;;;;;;;0.13;0.13;;;;;;;-2.67;82.28;96750.72;5046127;28;20555;-62
2024/01/12 05:45:57;;;;;;;0.15;0.15;;;;;;;-2.61;82.37;96773.94;5044204;28;20053;-63
2024/01/12 05:48:26;;;;;;;0.20;0.20;;;;;;;-2.63;82.48;96773.44;5044333;28;20056;-64
2024/01/12 05:50:53;;;;;;;0.20;0.20;;;;;;;-3.55;82.95;96617.09;5045537;28;20053;-63
2024/01/12 05:53:25;;;;;;;0.20;0.20;;;;;;;-2.41;82.83;96776.34;5028393;28;20045;-62
2024/01/12 05:55:52;;;;;;;0.20;0.20;;;;;;;-2.91;82.27;96701.22;5024053;28;20132;-62
2024/01/12 05:58:20;;;;;;;0.20;0.20;;;;;;;-2.47;81.48;96758.56;5024361;28;20483;-62
2024/01/12 06:00:47;;;;;;;0.20;0.20;;;;;;;-2.69;81.57;96717.69;5025530;28;20072;-62
2024/01/12 06:03:14;;;;;;;0.20;0.20;;;;;;;-2.38;82.01;96813.72;5023200;28;20061;-63
2024/01/12 06:05:41;;;;;;;0.20;0.20;;;;;;;-2.53;82.11;96827.47;5025526;28;20115;-62
2024/01/12 06:08:08;;;;;;;0.20;0.20;;;;;;;-2.63;82.92;96824.94;5025265;28;20049;-62
2024/01/12 06:10:37;;;;;;;0.20;0.20;;;;;;;-2.77;83.36;96799.66;5023712;28;20575;-62
2024/01/12 06:13:04;;;;;;;0.20;0.20;;;;;;;-3.17;82.99;96783.91;5023850;28;20049;-62
2024/01/12 06:15:31;;;;;;;0.20;0.20;;;;;;;-3.25;83.59;96724.97;5025439;28;20049;-62
2024/01/12 06:17:59;;;;;;;0.10;0.10;;;;;;;-5.29;82.66;96400.84;5029585;28;20060;-63
2024/01/12 06:20:26;;;;;;;0.20;0.20;;;;;;;-2.82;83.35;96799.72;5045425;28;20525;-62
2024/01/12 06:22:53;;;;;;;0.10;0.10;;;;;;;-2.97;83.31;96761.97;5045176;28;20060;-62
2024/01/12 06:25:20;;;;;;;0.20;0.20;;;;;;;-2.50;83.67;96824.22;5044734;28;20515;-63
2024/01/12 06:27:47;;;;;;;0.10;0.10;;;;;;;-2.18;83.13;96851.38;5043348;28;20435;-63
2024/01/12 06:30:14;;;;;;;0.20;0.20;;;;;;;-2.20;82.81;96831.91;5043486;28;20060;-63
2024/01/12 06:32:41;;;;;;;0.10;0.10;;;;;;;-2.48;81.74;96802.22;5044956;28;20041;-63
2024/01/12 06:35:10;;;;;;;0.20;0.20;;;;;;;-2.30;83.11;96869.19;5044496;28;20063;-62
2024/01/12 06:37:38;;;;;;;0.20;0.20;;;;;;;-2.56;83.35;96784.69;5044935;28;20431;-62
2024/01/12 06:40:05;;;;;;;0.20;0.20;;;;;;;-2.01;82.62;96857.09;5044878;28;20087;-62
2024/01/12 06:42:32;;;;;;;0.10;0.10;;;;;;;-2.04;81.54;96863.09;5043260;28;20059;-62
2024/01/12 06:44:59;;;;;;;0.10;0.10;;;;;;;-3.78;87.15;96745.09;5044797;28;20466;-62
2024/01/12 06:47:27;;;;;;;0.20;0.20;;;;;;;-2.71;87.50;96871.66;5036487;28;20507;-62
2024/01/12 06:49:54;;;;;;;0.20;0.20;;;;;;;-3.01;88.43;96825.16;5024897;28;20591;-62
2024/01/12 06:52:21;;;;;;;0.20;0.20;;;;;;;-2.53;88.08;96830.19;5039440;28;20516;-62
2024/01/12 06:54:48;;;;;;;0.20;0.20;;;;;;;-2.12;86.54;96866.47;5024820;28;20131;-64
2024/01/12 06:57:14;;;;;;;0.20;0.20;;;;;;;-1.99;85.73;96871.16;5039180;28;20056;-62
2024/01/12 06:59:41;;;;;;;0.20;0.20;;;;;;;-1.85;84.58;96877.47;5024432;28;20509;-63
2024/01/12 07:02:08;;;;;;;0.20;0.20;;;;;;;-1.70;81.98;96868.28;5039411;28;20578;-61
2024/01/12 07:04:35;;;;;;;0.20;0.20;;;;;;;-1.47;79.06;96866.53;5038897;28;20658;-62
2024/01/12 07:07:03;;;;;;;0.20;0.20;;;;;;;-1.38;77.39;96851.16;5038780;28;20060;-62
2024/01/12 07:09:29;;;;;;;0.20;0.20;;;;;;;-1.00;76.86;96872.47;5030273;28;20053;-65
2024/01/12 07:11:56;;;;;;;0.20;0.20;;;;;;;-0.88;73.72;96866.50;5031938;28;20529;-61
2024/01/12 07:14:23;;;;;;;0.20;0.20;;;;;;;-0.59;72.76;96877.91;5030121;28;20049;-60
2024/01/12 07:16:50;;;;;;;0.20;0.20;;;;;;;-3.82;71.65;96403.22;5033739;28;20045;-67
2024/01/12 07:19:17;;;;;;;0.20;0.20;;;;;;;-0.14;71.67;96863.31;5038563;28;20049;-61
2024/01/12 07:21:44;;;;;;;0.20;0.20;;;;;;;-0.75;69.19;96727.88;5042610;28;20064;-61
2024/01/12 07:24:11;;;;;;;0.20;0.20;;;;;;;0.48;67.99;96876.00;5037786;28;20642;-70
2024/01/12 07:26:37;;;;;;;0.20;0.20;;;;;;;-0.21;63.12;96713.25;5032772;28;20065;-64
2024/01/12 07:29:06;;;;;;;0.20;0.20;;;;;;;0.39;61.65;96768.91;5039714;28;20507;-63
2024/01/12 07:31:35;;;;;;;0.20;0.20;;;;;;;0.98;60.67;96879.34;5042536;28;20072;-70
2024/01/12 07:34:03;;;;;;;0.20;0.20;;;;;;;1.00;60.02;96888.00;5043632;28;20057;-67
2024/01/12 07:36:31;;;;;;;0.20;0.20;;;;;;;1.05;58.57;96890.59;5043049;28;20427;-62
2024/01/12 07:38:58;;;;;;;0.20;0.20;;;;;;;0.66;58.24;96820.50;5028216;28;20053;-68
2024/01/12 07:41:26;;;;;;;0.20;0.20;;;;;;;0.35;58.05;96772.56;5043312;28;20127;-70
2024/01/12 07:43:54;;;;;;;0.20;0.20;;;;;;;0.56;58.51;96768.97;5041162;28;20431;-70
2024/01/12 07:46:21;;;;;;;0.20;0.20;;;;;;;1.50;56.23;96898.34;5042151;28;20049;-65
2024/01/12 07:48:50;;;;;;;0.20;0.20;;;;;;;1.41;55.70;96856.59;5041113;28;20053;-70
2024/01/12 07:51:18;;;;;;;0.20;0.20;;;;;;;1.73;52.92;96912.72;5026741;28;20291;-67
2024/01/12 07:53:45;;;;;;;0.20;0.20;;;;;;;1.90;55.71;96917.44;5027496;28;20045;-75
2024/01/12 07:56:12;;;;;;;0.20;0.20;;;;;;;2.04;56.21;96918.09;5042683;28;20068;-60
2024/01/12 07:58:38;;;;;;;0.20;0.20;;;;;;;2.10;55.19;96934.03;5042887;28;20070;-70
2024/01/12 08:01:05;;;;;;;0.20;0.20;;;;;;;1.89;55.15;96856.53;5042180;28;20059;-70
2024/01/12 08:03:32;;;;;;;0.20;0.20;;;;;;;2.43;59.17;96943.38;5033691;28;20075;-68
2024/01/12 08:06:01;;;;;;;0.20;0.20;;;;;;;2.50;60.54;96940.13;5043493;28;20490;-60
2024/01/12 08:08:28;;;;;;;0.20;0.20;;;;;;;1.69;61.63;96839.97;5033898;28;20161;-61
2024/01/12 08:10:54;;;;;;;0.20;0.20;;;;;;;0.81;60.89;96653.81;5027799;28;20076;-68
2024/01/12 08:13:21;;;;;;;0.20;0.20;;;;;;;2.70;60.15;96920.38;5041641;28;20049;-70
2024/01/12 08:15:48;;;;;;;0.20;0.20;;;;;;;2.92;59.38;96937.38;5033182;28;20103;-61
2024/01/12 08:18:16;;;;;;;0.30;0.30;;;;;;;2.98;59.29;96938.03;5028354;28;20122;-72
2024/01/12 08:20:43;;;;;;;0.20;0.20;;;;;;;2.80;58.69;96898.16;5038603;28;20356;-67
2024/01/12 08:23:09;;;;;;;0.20;0.20;;;;;;;3.21;57.83;96949.59;5039894;28;20056;-61
2024/01/12 08:25:36;;;;;;;0.20;0.20;;;;;;;2.97;57.10;96909.09;5040924;28;20462;-66
2024/01/12 08:28:03;;;;;;;0.22;0.22;;;;;;;2.59;56.56;96837.09;5028533;28;20049;-64
2024/01/12 08:30:30;;;;;;;0.20;0.20;;;;;;;2.20;58.95;96946.53;5043555;28;20045;-68
2024/01/12 08:32:57;;;;;;;0.22;0.22;;;;;;;2.38;57.54;96931.78;5047198;28;20057;-65
2024/01/12 08:35:24;;;;;;;0.20;0.20;;;;;;;1.87;58.34;96853.31;5046625;28;20549;-68
2024/01/12 08:37:52;;;;;;;0.20;0.20;;;;;;;2.28;59.37;96982.09;5047113;28;20103;-68
2024/01/12 08:40:18;;;;;;;0.20;0.20;;;;;;;1.97;57.49;96966.91;5046870;28;20055;-65
2024/01/12 08:42:45;;;;;;;0.20;0.20;;;;;;;2.38;57.58;96989.19;5045245;28;20056;-68
2024/01/12 08:45:12;;;;;;;0.22;0.22;;;;;;;2.50;57.33;96956.53;5045192;28;20055;-64
2024/01/12 08:47:39;;;;;;;0.20;0.20;;;;;;;2.19;56.02;96907.50;5047094;28;20061;-68
2024/01/12 08:50:06;;;;;;;0.20;0.20;;;;;;;3.20;55.02;96973.41;5046144;28;20055;-68
2024/01/12 08:52:33;;;;;;;0.20;0.20;;;;;;;3.39;54.90;96982.06;5045127;28;20084;-68
2024/01/12 08:55:00;;;;;;;0.20;0.20;;;;;;;3.42;53.51;96954.03;5046331;28;20056;-69
2024/01/12 08:57:27;;;;;;;0.20;0.20;;;;;;;2.92;53.84;96906.50;5046070;28;20530;-65
2024/01/12 08:59:54;;;;;;;0.30;0.30;;;;;;;2.73;53.71;96800.22;5046107;28;20156;-66
2024/01/12 09:02:22;;;;;;;0.30;0.30;;;;;;;3.48;52.66;96914.41;5044353;28;20102;-63
2024/01/12 09:04:49;;;;;;;0.30;0.30;;;;;;;4.42;52.25;96976.94;5046380;28;20056;-69
2024/01/12 09:07:16;;;;;;;0.30;0.30;;;;;;;4.06;51.02;96985.69;5045897;28;20060;-68
2024/01/12 09:09:43;;;;;;;0.20;0.20;;;;;;;2.20;52.97;96826.31;5046578;28;20061;-68
2024/01/12 09:12:11;;;;;;;0.20;0.20;;;;;;;2.75;54.27;96950.28;5044393;28;20591;-63
2024/01/12 09:14:38;;;;;;;0.20;0.20;;;;;;;3.57;54.24;97000.06;5046101;28;20100;-63
2024/01/12 09:17:05;;;;;;;0.20;0.20;;;;;;;4.25;51.63;96991.53;5039018;28;20055;-66
2024/01/12 09:19:32;;;;;;;0.30;0.30;;;;;;;4.50;51.80;96978.81;5041380;28;20056;-61
2024/01/12 09:22:02;;;;;;;0.22;0.22;;;;;;;4.71;50.19;96978.84;5039236;28;20638;-58
2024/01/12 09:24:29;;;;;;;0.30;0.30;;;;;;;4.96;50.44;96997.03;5032406;28;20140;-65
2024/01/12 09:26:56;;;;;;;0.30;0.30;;;;;;;5.02;49.61;96929.81;5039074;28;20084;-60
2024/01/12 09:29:23;;;;;;;0.30;0.30;;;;;;;5.41;48.47;96970.44;5043776;28;20550;-63
2024/01/12 09:31:50;;;;;;;0.32;0.32;;;;;;;5.56;48.92;96989.88;5045158;28;20056;-62
2024/01/12 09:34:17;;;;;;;0.40;0.40;;;;;;;5.30;48.96;96988.50;5045221;28;20048;-57
2024/01/12 09:36:44;;;;;;;0.30;0.30;;;;;;;4.85;47.48;96971.16;5044576;28;20045;-63
2024/01/12 09:39:14;;;;;;;0.30;0.30;;;;;;;4.73;48.11;96927.19;5043608;28;20588;-62
2024/01/12 09:41:49;;;;;;;0.30;0.30;;;;;;;4.14;49.09;97011.47;5043915;28;20092;-58
2024/01/12 09:44:20;;;;;;;0.20;0.20;;;;;;;4.18;50.07;97015.94;5050977;28;20053;-61
2024/01/12 09:46:58;;;;;;;0.30;0.30;;;;;;;4.68;50.60;97008.53;5044722;28;20044;-59
2024/01/12 09:49:28;;;;;;;0.30;0.30;;;;;;;4.48;49.99;96943.50;5041389;28;20053;-61
2024/01/12 09:52:00;;;;;;;0.30;0.30;;;;;;;4.58;47.24;96997.16;5042045;28;20083;-60
2024/01/12 09:54:27;;;;;;;0.30;0.30;;;;;;;4.69;46.36;96995.63;5031687;28;20076;-62
2024/01/12 09:56:58;;;;;;;0.30;0.30;;;;;;;4.06;44.87;96917.16;5043718;28;20084;-68
2024/01/12 09:59:27;;;;;;;0.30;0.30;;;;;;;4.64;44.55;96991.16;5029252;28;20080;-62
2024/01/12 10:01:56;;;;;;;0.30;0.30;;;;;;;4.40;44.88;96936.16;5041213;28;20469;-73
2024/01/12 10:04:23;;;;;;;0.30;0.30;;;;;;;4.94;44.61;96999.31;5041958;28;20580;-62
2024/01/12 10:06:54;;;;;;;0.30;0.30;;;;;;;5.05;44.78;96970.31;5040780;28;20068;-62
2024/01/12 10:09:26;;;;;;;0.30;0.30;;;;;;;5.38;42.39;96979.38;5039832;28;20058;-67
2024/01/12 10:11:54;;;;;;;0.30;0.30;;;;;;;5.46;43.26;96994.97;5021656;28;20041;-61
2024/01/12 10:14:22;;;;;;;0.30;0.30;;;;;;;5.75;42.93;96997.56;5039927;28;20054;-63
2024/01/12 10:16:56;;;;;;;0.30;0.30;;;;;;;5.21;43.07;96897.97;5040802;28;20060;-63
2024/01/12 10:19:23;;;;;;;0.38;0.38;;;;;;;6.01;42.87;97003.59;5043188;28;20044;-63
2024/01/12 10:21:51;;;;;;;0.30;0.30;;;;;;;5.52;42.18;96971.63;5038728;28;20049;-63
2024/01/12 10:24:20;;;;;;;0.30;0.30;;;;;;;5.74;42.83;97006.94;5038687;28;20060;-64
2024/01/12 10:26:48;;;;;;;0.40;0.40;;;;;;;5.62;43.43;97009.66;5040859;28;20520;-60
2024/01/12 10:29:16;;;;;;;0.40;0.40;;;;;;;5.44;43.36;96978.00;5041725;28;20045;-67
2024/01/12 10:31:45;;;;;;;0.30;0.30;;;;;;;5.29;43.21;96952.00;5035983;28;20045;-65
2024/01/12 10:34:12;;;;;;;0.30;0.30;;;;;;;4.84;43.89;96859.78;5041227;28;20048;-64
2024/01/12 10:36:43;;;;;;;0.30;0.30;;;;;;;5.69;43.11;97031.91;5039031;28;20494;-62
2024/01/12 10:39:15;;;;;;;0.30;0.30;;;;;;;4.94;42.66;96884.03;5040358;28;20048;-65
2024/01/12 10:41:45;;;;;;;0.30;0.30;;;;;;;5.72;41.95;97018.28;5041279;28;20128;-65
2024/01/12 10:44:15;;;;;;;0.30;0.30;;;;;;;5.96;41.98;97023.84;5040454;28;20055;-65
2024/01/12 10:46:47;;;;;;;0.30;0.30;;;;;;;5.17;42.08;96929.22;5041124;28;20593;-65
2024/01/12 10:49:25;;;;;;;0.30;0.30;;;;;;;5.74;42.12;97012.44;5040479;28;20049;-66
2024/01/12 10:52:18;;;;;;;0.35;0.35;;;;;;;5.95;42.37;97007.72;5040320;28;20521;-62
2024/01/12 10:55:05;;;;;;;0.30;0.30;;;;;;;6.14;41.20;97011.53;5043228;28;20130;-62
2024/01/12 10:57:32;;;;;;;0.30;0.30;;;;;;;6.39;41.62;97014.25;5043079;28;20212;-62
2024/01/12 11:00:05;;;;;;;0.32;0.32;;;;;;;5.50;41.57;96902.50;5040936;28;20539;-62
2024/01/12 11:02:32;;;;;;;0.40;0.40;;;;;;;6.63;40.54;97017.81;5042268;28;20049;-65
2024/01/12 11:05:00;;;;;;;0.30;0.30;;;;;;;6.28;40.73;96994.66;5040237;28;20057;-66
2024/01/12 11:07:27;;;;;;;0.30;0.30;;;;;;;4.03;40.46;96613.66;5025440;28;20061;-67
2024/01/12 11:09:55;;;;;;;0.30;0.30;;;;;;;6.45;40.60;96991.69;5033563;28;20091;-66
2024/01/12 11:12:39;;;;;;;0.30;0.30;;;;;;;5.40;43.16;97034.78;5041824;28;20053;-62
2024/01/12 11:15:07;;;;;;;0.25;0.25;;;;;;;5.18;43.17;97043.38;5042993;28;20052;-63
2024/01/12 11:17:36;;;;;;;0.38;0.38;;;;;;;4.83;42.49;96899.31;5041974;28;20127;-66
2024/01/12 11:20:11;;;;;;;0.30;0.30;;;;;;;6.16;42.45;97030.44;5043320;28;20044;-66
2024/01/12 11:22:41;;;;;;;0.30;0.30;;;;;;;6.45;41.27;97024.69;5043112;28;20091;-62
2024/01/12 11:25:10;;;;;;;0.30;0.30;;;;;;;6.24;41.43;97032.28;5041738;28;20132;-62
2024/01/12 11:27:39;;;;;;;0.30;0.30;;;;;;;5.75;41.89;97036.81;5043570;28;20049;-66
2024/01/12 11:30:06;;;;;;;0.30;0.30;;;;;;;6.13;41.66;97026.41;5043268;28;20063;-65
2024/01/12 11:32:42;;;;;;;0.40;0.40;;;;;;;5.34;42.01;96942.75;5043329;28;20057;-67
2024/01/12 11:35:17;;;;;;;0.30;0.30;;;;;;;5.23;42.71;96980.78;5042741;28;20103;-65
2024/01/12 11:37:45;;;;;;;0.30;0.30;;;;;;;5.16;43.56;97012.69;5043417;28;20082;-65